UAE26K OMDB-OLBA
Flight info
| Callsign | UAE26K |
|---|---|
| Flight time | 3h 14m |
| Altitude | 36000 |
| Route | KUTLI DCT NABUN DCT RIBOT DCT SITER M440 KSA/N0483F380 T503 BONIS DCT OTILA DCT SOKAN L768 FIRAS R655 KTN/N0429F260 R655 LEBOR |
| Aircraft | B77W/H-SDE1E2E3FGHIJ2J3J4J5M1RWXY/LB1D1 |
Departure
| Time | 2026-05-07 23:23 |
|---|---|
| Airport | Dubai International Airport (OMDB) |
Arrival
| Time | 2026-05-08 02:37 |
|---|---|
| Airport | Beirut Rafic Hariri International Airport (OLBA) |
| Time | Latitude | Longitude | Altitude | Speed | Heading |
|---|---|---|---|---|---|
| 2026-05-07 23:00 | 25.24561 | 55.36959 | 26 ft | 0 kts | 167° |
| 2026-05-07 23:12 | 25.24575 | 55.36956 | 26 ft | 3 kts | 167° |
| 2026-05-07 23:13 | 25.24595 | 55.36951 | 25 ft | 3 kts | 165° |
| 2026-05-07 23:13 | 25.24615 | 55.36944 | 24 ft | 3 kts | 161° |
| 2026-05-07 23:13 | 25.24634 | 55.36937 | 24 ft | 3 kts | 157° |
| 2026-05-07 23:13 | 25.24652 | 55.36928 | 24 ft | 3 kts | 150° |
| 2026-05-07 23:14 | 25.24668 | 55.36915 | 25 ft | 3 kts | 132° |
| 2026-05-07 23:14 | 25.24678 | 55.36900 | 25 ft | 3 kts | 83° |
| 2026-05-07 23:14 | 25.24677 | 55.36893 | 23 ft | 1 kts | 32° |
| 2026-05-07 23:14 | 25.24663 | 55.36883 | 24 ft | 3 kts | 32° |
| 2026-05-07 23:15 | 25.24648 | 55.36873 | 24 ft | 2 kts | 32° |
| 2026-05-07 23:15 | 25.24645 | 55.36871 | 24 ft | 0 kts | 32° |
| 2026-05-07 23:17 | 25.24649 | 55.36873 | 24 ft | 2 kts | 32° |
| 2026-05-07 23:17 | 25.24666 | 55.36885 | 24 ft | 4 kts | 32° |
| 2026-05-07 23:18 | 25.24687 | 55.36917 | 25 ft | 6 kts | 73° |
| 2026-05-07 23:18 | 25.24681 | 55.36971 | 25 ft | 8 kts | 112° |
| 2026-05-07 23:18 | 25.24648 | 55.37035 | 27 ft | 11 kts | 121° |
| 2026-05-07 23:18 | 25.24604 | 55.37113 | 27 ft | 13 kts | 122° |
| 2026-05-07 23:19 | 25.24552 | 55.37206 | 27 ft | 16 kts | 122° |
| 2026-05-07 23:19 | 25.24490 | 55.37315 | 26 ft | 18 kts | 122° |
| 2026-05-07 23:19 | 25.24421 | 55.37438 | 26 ft | 20 kts | 122° |
| 2026-05-07 23:19 | 25.24345 | 55.37574 | 26 ft | 22 kts | 122° |
| 2026-05-07 23:20 | 25.24288 | 55.37675 | 27 ft | 13 kts | 122° |
| 2026-05-07 23:20 | 25.24274 | 55.37762 | 27 ft | 9 kts | 61° |
| 2026-05-07 23:20 | 25.24321 | 55.37808 | 28 ft | 9 kts | 36° |
| 2026-05-07 23:20 | 25.24376 | 55.37851 | 30 ft | 10 kts | 34° |
| 2026-05-07 23:21 | 25.24433 | 55.37893 | 34 ft | 10 kts | 34° |
| 2026-05-07 23:21 | 25.24492 | 55.37938 | 35 ft | 11 kts | 34° |
| 2026-05-07 23:21 | 25.24574 | 55.38000 | 30 ft | 17 kts | 34° |
| 2026-05-07 23:21 | 25.24664 | 55.38063 | 31 ft | 12 kts | 32° |
| 2026-05-07 23:22 | 25.24738 | 55.38108 | 35 ft | 8 kts | 13° |
| 2026-05-07 23:22 | 25.24778 | 55.38078 | 35 ft | 8 kts | 303° |
| 2026-05-07 23:22 | 25.24814 | 55.38012 | 34 ft | 12 kts | 300° |
| 2026-05-07 23:22 | 25.24903 | 55.37856 | 35 ft | 50 kts | 301° |
| 2026-05-07 23:23 | 25.25263 | 55.37206 | 37 ft | 147 kts | 301° |
| 2026-05-07 23:23 | 25.25942 | 55.35987 | 222 ft | 213 kts | 301° |
| 2026-05-07 23:23 | 25.26753 | 55.34564 | 1122 ft | 216 kts | 301° |
| 2026-05-07 23:23 | 25.27525 | 55.33177 | 2340 ft | 212 kts | 299° |
| 2026-05-07 23:24 | 25.28305 | 55.31757 | 3240 ft | 219 kts | 299° |
| 2026-05-07 23:24 | 25.29010 | 55.30313 | 4150 ft | 206 kts | 284° |
| 2026-05-07 23:24 | 25.29096 | 55.28792 | 4932 ft | 199 kts | 262° |
| 2026-05-07 23:24 | 25.28690 | 55.27330 | 5542 ft | 201 kts | 246° |
| 2026-05-07 23:25 | 25.28098 | 55.25931 | 6086 ft | 206 kts | 244° |
| 2026-05-07 23:25 | 25.27471 | 55.24488 | 6675 ft | 210 kts | 244° |
| 2026-05-07 23:25 | 25.26842 | 55.23032 | 7284 ft | 211 kts | 245° |
| 2026-05-07 23:25 | 25.26212 | 55.21566 | 7894 ft | 212 kts | 245° |
| 2026-05-07 23:26 | 25.25550 | 55.20024 | 8184 ft | 235 kts | 245° |
| 2026-05-07 23:26 | 25.24834 | 55.18347 | 8626 ft | 247 kts | 245° |
| 2026-05-07 23:26 | 25.24090 | 55.16605 | 9225 ft | 254 kts | 244° |
| 2026-05-07 23:26 | 25.23222 | 55.14836 | 9683 ft | 270 kts | 240° |
| 2026-05-07 23:27 | 25.21234 | 55.11084 | 10566 ft | 302 kts | 239° |
| 2026-05-07 23:27 | 25.20136 | 55.08978 | 10756 ft | 330 kts | 241° |
| 2026-05-07 23:27 | 25.19139 | 55.06583 | 10950 ft | 357 kts | 248° |
| 2026-05-07 23:28 | 25.18211 | 55.03950 | 11299 ft | 377 kts | 248° |
| 2026-05-07 23:28 | 25.17241 | 55.01219 | 11944 ft | 387 kts | 247° |
| 2026-05-07 23:28 | 25.16252 | 54.98522 | 12704 ft | 393 kts | 246° |
| 2026-05-07 23:28 | 25.14951 | 54.95886 | 13310 ft | 396 kts | 229° |
| 2026-05-07 23:29 | 25.12846 | 54.93928 | 13984 ft | 398 kts | 207° |
| 2026-05-07 23:29 | 25.10274 | 54.92830 | 14839 ft | 397 kts | 191° |
| 2026-05-07 23:29 | 25.07536 | 54.92571 | 15633 ft | 397 kts | 178° |
| 2026-05-07 23:29 | 25.04751 | 54.92639 | 16315 ft | 403 kts | 178° |
| 2026-05-07 23:30 | 25.01923 | 54.92708 | 17025 ft | 409 kts | 177° |
| 2026-05-07 23:30 | 24.99069 | 54.92879 | 17795 ft | 413 kts | 175° |
| 2026-05-07 23:30 | 24.96192 | 54.93105 | 18504 ft | 417 kts | 175° |
| 2026-05-07 23:30 | 24.93278 | 54.93333 | 19165 ft | 421 kts | 176° |
| 2026-05-07 23:31 | 24.90342 | 54.93541 | 19817 ft | 425 kts | 176° |
| 2026-05-07 23:31 | 24.87375 | 54.93739 | 20455 ft | 429 kts | 176° |
| 2026-05-07 23:31 | 24.84421 | 54.93779 | 21031 ft | 433 kts | 183° |
| 2026-05-07 23:31 | 24.81359 | 54.93490 | 21631 ft | 438 kts | 187° |
| 2026-05-07 23:32 | 24.78368 | 54.93066 | 22244 ft | 441 kts | 188° |
| 2026-05-07 23:32 | 24.75315 | 54.92600 | 22854 ft | 445 kts | 188° |
| 2026-05-07 23:32 | 24.72234 | 54.92145 | 23439 ft | 448 kts | 188° |
| 2026-05-07 23:32 | 24.69129 | 54.91714 | 23909 ft | 452 kts | 188° |
| 2026-05-07 23:33 | 24.65954 | 54.91299 | 24398 ft | 455 kts | 187° |
| 2026-05-07 23:33 | 24.62840 | 54.90909 | 24879 ft | 458 kts | 187° |
| 2026-05-07 23:33 | 24.59625 | 54.90516 | 25348 ft | 460 kts | 187° |
| 2026-05-07 23:33 | 24.56433 | 54.90129 | 25807 ft | 464 kts | 188° |
| 2026-05-07 23:34 | 24.53211 | 54.89739 | 26255 ft | 467 kts | 188° |
| 2026-05-07 23:34 | 24.49976 | 54.89347 | 26698 ft | 470 kts | 188° |
| 2026-05-07 23:34 | 24.46759 | 54.88956 | 27134 ft | 472 kts | 188° |
| 2026-05-07 23:34 | 24.43443 | 54.88553 | 27588 ft | 475 kts | 188° |
| 2026-05-07 23:35 | 24.40144 | 54.88152 | 28014 ft | 478 kts | 188° |
| 2026-05-07 23:35 | 24.36829 | 54.87748 | 28416 ft | 481 kts | 188° |
| 2026-05-07 23:35 | 24.33495 | 54.87343 | 28802 ft | 484 kts | 188° |
| 2026-05-07 23:35 | 24.30140 | 54.86935 | 29159 ft | 487 kts | 188° |
| 2026-05-07 23:36 | 24.26764 | 54.86525 | 29504 ft | 489 kts | 188° |
| 2026-05-07 23:36 | 24.23415 | 54.86119 | 29869 ft | 491 kts | 188° |
| 2026-05-07 23:36 | 24.19975 | 54.85702 | 30281 ft | 490 kts | 188° |
| 2026-05-07 23:36 | 24.16599 | 54.85293 | 30772 ft | 487 kts | 188° |
| 2026-05-07 23:37 | 24.13284 | 54.84892 | 31254 ft | 484 kts | 188° |
| 2026-05-07 23:37 | 24.10010 | 54.84214 | 31583 ft | 479 kts | 201° |
| 2026-05-07 23:37 | 24.07060 | 54.82575 | 31863 ft | 476 kts | 217° |
| 2026-05-07 23:37 | 24.04606 | 54.80161 | 32251 ft | 474 kts | 229° |
| 2026-05-07 23:38 | 24.02636 | 54.77292 | 32743 ft | 471 kts | 240° |
| 2026-05-07 23:38 | 24.01309 | 54.74043 | 33090 ft | 468 kts | 248° |
| 2026-05-07 23:38 | 24.00139 | 54.70707 | 33331 ft | 471 kts | 249° |
| 2026-05-07 23:38 | 23.98985 | 54.67367 | 33717 ft | 470 kts | 248° |
| 2026-05-07 23:39 | 23.97826 | 54.64037 | 34136 ft | 468 kts | 248° |
| 2026-05-07 23:39 | 23.96657 | 54.60724 | 34529 ft | 466 kts | 248° |
| 2026-05-07 23:39 | 23.95479 | 54.57429 | 34871 ft | 465 kts | 248° |
| 2026-05-07 23:39 | 23.94291 | 54.54143 | 35199 ft | 465 kts | 248° |
| 2026-05-07 23:40 | 23.93099 | 54.50865 | 35531 ft | 464 kts | 247° |
| 2026-05-07 23:40 | 23.91904 | 54.47592 | 35760 ft | 466 kts | 247° |
| 2026-05-07 23:40 | 23.89488 | 54.40991 | 35799 ft | 467 kts | 247° |
| 2026-05-07 23:41 | 23.87094 | 54.34450 | 35803 ft | 461 kts | 247° |
| 2026-05-07 23:41 | 23.84717 | 54.27965 | 35812 ft | 459 kts | 247° |
| 2026-05-07 23:42 | 23.82342 | 54.21492 | 35811 ft | 459 kts | 247° |
| 2026-05-07 23:42 | 23.79962 | 54.15017 | 35812 ft | 460 kts | 247° |
| 2026-05-07 23:43 | 23.77575 | 54.08531 | 35818 ft | 461 kts | 247° |
| 2026-05-07 23:43 | 23.75196 | 54.02080 | 35815 ft | 462 kts | 247° |
| 2026-05-07 23:44 | 23.72839 | 53.95693 | 35820 ft | 462 kts | 247° |
| 2026-05-07 23:44 | 23.70434 | 53.89188 | 35820 ft | 463 kts | 247° |
| 2026-05-07 23:45 | 23.68024 | 53.82679 | 35826 ft | 463 kts | 247° |
| 2026-05-07 23:45 | 23.65596 | 53.76133 | 35823 ft | 463 kts | 247° |
| 2026-05-07 23:46 | 23.63197 | 53.69671 | 35824 ft | 462 kts | 247° |
| 2026-05-07 23:46 | 23.60782 | 53.63178 | 35820 ft | 462 kts | 247° |
| 2026-05-07 23:47 | 23.58365 | 53.56689 | 35822 ft | 462 kts | 247° |
| 2026-05-07 23:47 | 23.55946 | 53.50206 | 35821 ft | 461 kts | 246° |
| 2026-05-07 23:48 | 23.53528 | 53.43732 | 35825 ft | 461 kts | 246° |
| 2026-05-07 23:48 | 23.51107 | 53.37260 | 35828 ft | 461 kts | 246° |
| 2026-05-07 23:49 | 23.48685 | 53.30796 | 35826 ft | 461 kts | 246° |
| 2026-05-07 23:49 | 23.46258 | 53.24329 | 35826 ft | 461 kts | 246° |
| 2026-05-07 23:50 | 23.43830 | 53.17869 | 35828 ft | 461 kts | 246° |
| 2026-05-07 23:50 | 23.41398 | 53.11405 | 35828 ft | 461 kts | 246° |
| 2026-05-07 23:51 | 23.38961 | 53.04938 | 35828 ft | 462 kts | 246° |
| 2026-05-07 23:51 | 23.36568 | 52.98599 | 35831 ft | 462 kts | 246° |
| 2026-05-07 23:52 | 23.34124 | 52.92131 | 35829 ft | 462 kts | 246° |
| 2026-05-07 23:52 | 23.31692 | 52.85706 | 35824 ft | 462 kts | 246° |
| 2026-05-07 23:53 | 23.29240 | 52.79238 | 35825 ft | 462 kts | 246° |
| 2026-05-07 23:53 | 23.26785 | 52.72771 | 35826 ft | 463 kts | 246° |
| 2026-05-07 23:54 | 23.24328 | 52.66307 | 35826 ft | 463 kts | 246° |
| 2026-05-07 23:54 | 23.21868 | 52.59843 | 35825 ft | 463 kts | 246° |
| 2026-05-07 23:55 | 23.19406 | 52.53385 | 35824 ft | 462 kts | 246° |
| 2026-05-07 23:55 | 23.16943 | 52.46930 | 35822 ft | 462 kts | 246° |
| 2026-05-07 23:56 | 23.15953 | 52.43615 | 35817 ft | 462 kts | 258° |
| 2026-05-07 23:56 | 23.15655 | 52.40138 | 35829 ft | 465 kts | 268° |
| 2026-05-07 23:56 | 23.16758 | 52.33204 | 35832 ft | 470 kts | 285° |
| 2026-05-07 23:57 | 23.18912 | 52.26479 | 35832 ft | 472 kts | 287° |
| 2026-05-07 23:57 | 23.21092 | 52.19735 | 35832 ft | 474 kts | 286° |
| 2026-05-07 23:58 | 23.23225 | 52.12954 | 35829 ft | 474 kts | 286° |
| 2026-05-07 23:58 | 23.24973 | 52.07301 | 35827 ft | 475 kts | 285° |
| 2026-05-07 23:59 | 23.27375 | 51.99486 | 35831 ft | 475 kts | 285° |
| 2026-05-07 23:59 | 23.29464 | 51.92680 | 35842 ft | 474 kts | 285° |
| 2026-05-08 00:00 | 23.31198 | 51.87028 | 35837 ft | 473 kts | 285° |
| 2026-05-08 00:00 | 23.33276 | 51.80245 | 35839 ft | 472 kts | 285° |
| 2026-05-08 00:01 | 23.35682 | 51.72377 | 35839 ft | 471 kts | 285° |
| 2026-05-08 00:01 | 23.37745 | 51.65616 | 35835 ft | 471 kts | 285° |
| 2026-05-08 00:02 | 23.39472 | 51.59950 | 35837 ft | 470 kts | 285° |
| 2026-05-08 00:02 | 23.41528 | 51.53191 | 35839 ft | 470 kts | 285° |
| 2026-05-08 00:03 | 23.43582 | 51.46428 | 35839 ft | 470 kts | 284° |
| 2026-05-08 00:03 | 23.45631 | 51.39671 | 35842 ft | 470 kts | 284° |
| 2026-05-08 00:04 | 23.47677 | 51.32910 | 35847 ft | 470 kts | 284° |
| 2026-05-08 00:04 | 23.49720 | 51.26148 | 35841 ft | 470 kts | 284° |
| 2026-05-08 00:05 | 23.51760 | 51.19385 | 35836 ft | 470 kts | 284° |
| 2026-05-08 00:05 | 23.53796 | 51.12623 | 35842 ft | 470 kts | 284° |
| 2026-05-08 00:06 | 23.55830 | 51.05857 | 35854 ft | 469 kts | 284° |
| 2026-05-08 00:06 | 23.57815 | 50.99241 | 35844 ft | 469 kts | 284° |
| 2026-05-08 00:07 | 23.59838 | 50.92487 | 35843 ft | 468 kts | 284° |
| 2026-05-08 00:07 | 23.61855 | 50.85743 | 35852 ft | 467 kts | 284° |
| 2026-05-08 00:08 | 23.63853 | 50.79047 | 35836 ft | 467 kts | 284° |
| 2026-05-08 00:08 | 23.65861 | 50.72308 | 35846 ft | 467 kts | 284° |
| 2026-05-08 00:09 | 23.67865 | 50.65572 | 35855 ft | 467 kts | 284° |
| 2026-05-08 00:09 | 23.69865 | 50.58835 | 35850 ft | 466 kts | 283° |
| 2026-05-08 00:10 | 23.71859 | 50.52107 | 35846 ft | 466 kts | 283° |
| 2026-05-08 00:10 | 23.73849 | 50.45382 | 35840 ft | 465 kts | 283° |
| 2026-05-08 00:11 | 23.75834 | 50.38661 | 35843 ft | 465 kts | 283° |
| 2026-05-08 00:11 | 23.77816 | 50.31937 | 35850 ft | 465 kts | 283° |
| 2026-05-08 00:12 | 23.79794 | 50.25217 | 35862 ft | 465 kts | 283° |
| 2026-05-08 00:12 | 23.81769 | 50.18495 | 35853 ft | 464 kts | 283° |
| 2026-05-08 00:13 | 23.83737 | 50.11784 | 35853 ft | 464 kts | 283° |
| 2026-05-08 00:13 | 23.85699 | 50.05082 | 35855 ft | 463 kts | 283° |
| 2026-05-08 00:14 | 23.87624 | 49.98496 | 35857 ft | 463 kts | 283° |
| 2026-05-08 00:14 | 23.89576 | 49.91804 | 35860 ft | 462 kts | 283° |
| 2026-05-08 00:15 | 23.91526 | 49.85105 | 35868 ft | 462 kts | 283° |
| 2026-05-08 00:15 | 23.93470 | 49.78416 | 35859 ft | 462 kts | 283° |
| 2026-05-08 00:16 | 23.95412 | 49.71727 | 35865 ft | 461 kts | 282° |
| 2026-05-08 00:16 | 23.97347 | 49.65043 | 35866 ft | 461 kts | 282° |
| 2026-05-08 00:17 | 23.99278 | 49.58363 | 35866 ft | 461 kts | 282° |
| 2026-05-08 00:17 | 24.01208 | 49.51677 | 35873 ft | 461 kts | 282° |
| 2026-05-08 00:18 | 24.03133 | 49.44994 | 35882 ft | 461 kts | 282° |
| 2026-05-08 00:18 | 24.05057 | 49.38302 | 35876 ft | 461 kts | 282° |
| 2026-05-08 00:19 | 24.06978 | 49.31609 | 35873 ft | 461 kts | 282° |
| 2026-05-08 00:19 | 24.08894 | 49.24922 | 35888 ft | 461 kts | 282° |
| 2026-05-08 00:20 | 24.10809 | 49.18222 | 35875 ft | 461 kts | 282° |
| 2026-05-08 00:20 | 24.12721 | 49.11526 | 35882 ft | 461 kts | 282° |
| 2026-05-08 00:21 | 24.14615 | 49.04878 | 35898 ft | 461 kts | 281° |
| 2026-05-08 00:21 | 24.16492 | 48.98277 | 35888 ft | 461 kts | 281° |
| 2026-05-08 00:22 | 24.18381 | 48.91625 | 35885 ft | 460 kts | 281° |
| 2026-05-08 00:22 | 24.20465 | 48.84978 | 35884 ft | 462 kts | 284° |
| 2026-05-08 00:23 | 24.22732 | 48.78389 | 35893 ft | 462 kts | 284° |
| 2026-05-08 00:23 | 24.24983 | 48.71799 | 35900 ft | 462 kts | 284° |
| 2026-05-08 00:24 | 24.27198 | 48.65196 | 35920 ft | 461 kts | 284° |
| 2026-05-08 00:24 | 24.29391 | 48.58602 | 35907 ft | 461 kts | 283° |
| 2026-05-08 00:25 | 24.31581 | 48.52005 | 35909 ft | 460 kts | 283° |
| 2026-05-08 00:25 | 24.33764 | 48.45422 | 35912 ft | 459 kts | 283° |
| 2026-05-08 00:26 | 24.35942 | 48.38845 | 35917 ft | 459 kts | 283° |
| 2026-05-08 00:26 | 24.38118 | 48.32264 | 35918 ft | 459 kts | 283° |
| 2026-05-08 00:27 | 24.40290 | 48.25685 | 35927 ft | 459 kts | 283° |
| 2026-05-08 00:27 | 24.42460 | 48.19098 | 35928 ft | 459 kts | 283° |
| 2026-05-08 00:28 | 24.44615 | 48.12548 | 35933 ft | 460 kts | 283° |
| 2026-05-08 00:28 | 24.46782 | 48.05950 | 35936 ft | 460 kts | 283° |
| 2026-05-08 00:29 | 24.48903 | 47.99482 | 35946 ft | 460 kts | 283° |
| 2026-05-08 00:29 | 24.51068 | 47.92870 | 35951 ft | 460 kts | 283° |
| 2026-05-08 00:30 | 24.53227 | 47.86264 | 35943 ft | 459 kts | 283° |
| 2026-05-08 00:30 | 24.55386 | 47.79666 | 35957 ft | 459 kts | 283° |
| 2026-05-08 00:31 | 24.57805 | 47.73153 | 35948 ft | 461 kts | 285° |
| 2026-05-08 00:31 | 24.60317 | 47.66673 | 35957 ft | 461 kts | 286° |
| 2026-05-08 00:32 | 24.62814 | 47.60198 | 35966 ft | 460 kts | 285° |
| 2026-05-08 00:32 | 24.65286 | 47.53728 | 35969 ft | 459 kts | 285° |
| 2026-05-08 00:33 | 24.67745 | 47.47262 | 35969 ft | 458 kts | 285° |
| 2026-05-08 00:33 | 24.70199 | 47.40798 | 35975 ft | 458 kts | 285° |
| 2026-05-08 00:34 | 24.72647 | 47.34341 | 35973 ft | 457 kts | 285° |
| 2026-05-08 00:34 | 24.75091 | 47.27888 | 35998 ft | 457 kts | 285° |
| 2026-05-08 00:35 | 24.77531 | 47.21436 | 35998 ft | 456 kts | 285° |
| 2026-05-08 00:35 | 24.79964 | 47.14991 | 36005 ft | 456 kts | 285° |
| 2026-05-08 00:36 | 24.82390 | 47.08555 | 35999 ft | 455 kts | 285° |
| 2026-05-08 00:36 | 24.84795 | 47.02164 | 36008 ft | 454 kts | 285° |
| 2026-05-08 00:37 | 24.87165 | 46.95860 | 36025 ft | 454 kts | 284° |
| 2026-05-08 00:38 | 24.90777 | 46.86229 | 36020 ft | 453 kts | 284° |
| 2026-05-08 00:38 | 24.93175 | 46.79823 | 36022 ft | 452 kts | 284° |
| 2026-05-08 00:39 | 24.95567 | 46.73423 | 36017 ft | 451 kts | 284° |
| 2026-05-08 00:39 | 24.98589 | 46.67266 | 36038 ft | 465 kts | 296° |
| 2026-05-08 00:40 | 25.02839 | 46.61771 | 36019 ft | 479 kts | 307° |
| 2026-05-08 00:40 | 25.07761 | 46.56784 | 36022 ft | 481 kts | 309° |
| 2026-05-08 00:41 | 25.12720 | 46.51838 | 36022 ft | 481 kts | 308° |
| 2026-05-08 00:41 | 25.17645 | 46.46849 | 36029 ft | 480 kts | 308° |
| 2026-05-08 00:42 | 25.22537 | 46.41842 | 36019 ft | 480 kts | 308° |
| 2026-05-08 00:42 | 25.27424 | 46.36826 | 36021 ft | 479 kts | 308° |
| 2026-05-08 00:43 | 25.32304 | 46.31814 | 36029 ft | 479 kts | 308° |
| 2026-05-08 00:43 | 25.37155 | 46.26830 | 36011 ft | 479 kts | 308° |
| 2026-05-08 00:44 | 25.42033 | 46.21813 | 36008 ft | 478 kts | 308° |
| 2026-05-08 00:44 | 25.46899 | 46.16801 | 36028 ft | 478 kts | 307° |
| 2026-05-08 00:45 | 25.51767 | 46.11781 | 36006 ft | 478 kts | 307° |
| 2026-05-08 00:45 | 25.56633 | 46.06756 | 35994 ft | 479 kts | 307° |
| 2026-05-08 00:46 | 25.60717 | 46.02536 | 35997 ft | 479 kts | 307° |
| 2026-05-08 00:46 | 25.65503 | 45.97588 | 35984 ft | 479 kts | 307° |
| 2026-05-08 00:47 | 25.71166 | 45.91727 | 35997 ft | 479 kts | 307° |
| 2026-05-08 00:47 | 25.76032 | 45.86683 | 35988 ft | 479 kts | 307° |
| 2026-05-08 00:48 | 25.80111 | 45.82449 | 35976 ft | 479 kts | 307° |
| 2026-05-08 00:48 | 25.84976 | 45.77395 | 35978 ft | 479 kts | 307° |
| 2026-05-08 00:49 | 25.89811 | 45.72369 | 35969 ft | 479 kts | 307° |
| 2026-05-08 00:49 | 25.94704 | 45.67282 | 35981 ft | 479 kts | 307° |
| 2026-05-08 00:50 | 25.99525 | 45.62262 | 35966 ft | 478 kts | 307° |
| 2026-05-08 00:50 | 26.04367 | 45.57212 | 35963 ft | 477 kts | 307° |
| 2026-05-08 00:51 | 26.09196 | 45.52169 | 35961 ft | 476 kts | 306° |
| 2026-05-08 00:51 | 26.14011 | 45.47136 | 35969 ft | 474 kts | 306° |
| 2026-05-08 00:52 | 26.18808 | 45.42114 | 35962 ft | 473 kts | 306° |
| 2026-05-08 00:52 | 26.23578 | 45.37094 | 35954 ft | 471 kts | 306° |
| 2026-05-08 00:53 | 26.28339 | 45.32076 | 35967 ft | 471 kts | 306° |
| 2026-05-08 00:53 | 26.33103 | 45.27061 | 35965 ft | 471 kts | 306° |
| 2026-05-08 00:54 | 26.37875 | 45.22056 | 35967 ft | 472 kts | 306° |
| 2026-05-08 00:54 | 26.42663 | 45.17029 | 35979 ft | 473 kts | 306° |
| 2026-05-08 00:55 | 26.47454 | 45.11988 | 35966 ft | 474 kts | 306° |
| 2026-05-08 00:55 | 26.52254 | 45.06930 | 35960 ft | 475 kts | 306° |
| 2026-05-08 00:56 | 26.57063 | 45.01858 | 35987 ft | 476 kts | 305° |
| 2026-05-08 00:56 | 26.61785 | 44.96876 | 35968 ft | 476 kts | 305° |
| 2026-05-08 00:57 | 26.66593 | 44.91805 | 35957 ft | 474 kts | 305° |
| 2026-05-08 00:57 | 26.71375 | 44.86752 | 35961 ft | 472 kts | 305° |
| 2026-05-08 00:58 | 26.76135 | 44.81715 | 35960 ft | 470 kts | 305° |
| 2026-05-08 00:58 | 26.80876 | 44.76680 | 35959 ft | 469 kts | 305° |
| 2026-05-08 00:59 | 26.85571 | 44.71676 | 35959 ft | 469 kts | 305° |
| 2026-05-08 00:59 | 26.90324 | 44.66602 | 35973 ft | 469 kts | 305° |
| 2026-05-08 01:00 | 26.95043 | 44.61560 | 35971 ft | 469 kts | 304° |
| 2026-05-08 01:00 | 26.99778 | 44.56498 | 35974 ft | 470 kts | 305° |
| 2026-05-08 01:01 | 27.04514 | 44.51446 | 35952 ft | 471 kts | 305° |
| 2026-05-08 01:01 | 27.09256 | 44.46386 | 35961 ft | 470 kts | 305° |
| 2026-05-08 01:02 | 27.13997 | 44.41317 | 35983 ft | 471 kts | 304° |
| 2026-05-08 01:02 | 27.18749 | 44.36228 | 35963 ft | 473 kts | 304° |
| 2026-05-08 01:03 | 27.23470 | 44.31164 | 35954 ft | 473 kts | 304° |
| 2026-05-08 01:03 | 27.28237 | 44.26042 | 35987 ft | 475 kts | 304° |
| 2026-05-08 01:04 | 27.33017 | 44.20898 | 35984 ft | 476 kts | 304° |
| 2026-05-08 01:04 | 27.37811 | 44.15733 | 35952 ft | 477 kts | 304° |
| 2026-05-08 01:05 | 27.42609 | 44.10563 | 35974 ft | 477 kts | 304° |
| 2026-05-08 01:05 | 27.47402 | 44.05389 | 35951 ft | 477 kts | 304° |
| 2026-05-08 01:06 | 27.52187 | 44.00215 | 35970 ft | 477 kts | 304° |
| 2026-05-08 01:06 | 27.56899 | 43.95113 | 35970 ft | 477 kts | 304° |
| 2026-05-08 01:07 | 27.61685 | 43.89926 | 35963 ft | 477 kts | 304° |
| 2026-05-08 01:07 | 27.66469 | 43.84733 | 35958 ft | 477 kts | 304° |
| 2026-05-08 01:08 | 27.71254 | 43.79533 | 35976 ft | 478 kts | 304° |
| 2026-05-08 01:08 | 27.76037 | 43.74327 | 35964 ft | 478 kts | 304° |
| 2026-05-08 01:09 | 27.80826 | 43.69109 | 35966 ft | 478 kts | 304° |
| 2026-05-08 01:09 | 27.85603 | 43.63881 | 35969 ft | 477 kts | 303° |
| 2026-05-08 01:10 | 27.90151 | 43.58483 | 35975 ft | 473 kts | 301° |
| 2026-05-08 01:10 | 27.94609 | 43.53010 | 35962 ft | 472 kts | 301° |
| 2026-05-08 01:11 | 27.99080 | 43.47562 | 35976 ft | 472 kts | 301° |
| 2026-05-08 01:11 | 28.03567 | 43.42134 | 36014 ft | 473 kts | 301° |
| 2026-05-08 01:12 | 28.08082 | 43.36679 | 35985 ft | 475 kts | 301° |
| 2026-05-08 01:12 | 28.12566 | 43.31256 | 35968 ft | 475 kts | 301° |
| 2026-05-08 01:13 | 28.17110 | 43.25752 | 35984 ft | 475 kts | 301° |
| 2026-05-08 01:13 | 28.21617 | 43.20283 | 35984 ft | 476 kts | 301° |
| 2026-05-08 01:14 | 28.26109 | 43.14823 | 35984 ft | 477 kts | 301° |
| 2026-05-08 01:14 | 28.30661 | 43.09285 | 35991 ft | 477 kts | 301° |
| 2026-05-08 01:15 | 28.35162 | 43.03803 | 35986 ft | 477 kts | 301° |
| 2026-05-08 01:15 | 28.39610 | 42.98378 | 35999 ft | 478 kts | 301° |
| 2026-05-08 01:16 | 28.44141 | 42.92842 | 35996 ft | 478 kts | 301° |
| 2026-05-08 01:16 | 28.48672 | 42.87300 | 36002 ft | 479 kts | 301° |
| 2026-05-08 01:17 | 28.53207 | 42.81745 | 35992 ft | 479 kts | 301° |
| 2026-05-08 01:17 | 28.57733 | 42.76194 | 36000 ft | 479 kts | 301° |
| 2026-05-08 01:18 | 28.62265 | 42.70628 | 36000 ft | 479 kts | 301° |
| 2026-05-08 01:18 | 28.66782 | 42.65071 | 36002 ft | 478 kts | 301° |
| 2026-05-08 01:19 | 28.71297 | 42.59495 | 36022 ft | 479 kts | 301° |
| 2026-05-08 01:19 | 28.75810 | 42.53912 | 36015 ft | 479 kts | 301° |
| 2026-05-08 01:20 | 28.80331 | 42.48314 | 36009 ft | 480 kts | 301° |
| 2026-05-08 01:20 | 28.84853 | 42.42707 | 36010 ft | 480 kts | 301° |
| 2026-05-08 01:21 | 28.89373 | 42.37094 | 36020 ft | 482 kts | 301° |
| 2026-05-08 01:21 | 28.93907 | 42.31455 | 36024 ft | 482 kts | 301° |
| 2026-05-08 01:22 | 28.98440 | 42.25810 | 36020 ft | 482 kts | 301° |
| 2026-05-08 01:22 | 29.02971 | 42.20162 | 36022 ft | 482 kts | 301° |
| 2026-05-08 01:23 | 29.07510 | 42.14498 | 36019 ft | 483 kts | 302° |
| 2026-05-08 01:23 | 29.12046 | 42.08836 | 36024 ft | 483 kts | 302° |
| 2026-05-08 01:24 | 29.16579 | 42.03170 | 36023 ft | 482 kts | 302° |
| 2026-05-08 01:24 | 29.21030 | 41.97595 | 36064 ft | 482 kts | 302° |
| 2026-05-08 01:25 | 29.25550 | 41.91926 | 36035 ft | 482 kts | 302° |
| 2026-05-08 01:25 | 29.30031 | 41.86299 | 36032 ft | 481 kts | 302° |
| 2026-05-08 01:26 | 29.34534 | 41.80636 | 36038 ft | 480 kts | 302° |
| 2026-05-08 01:26 | 29.39033 | 41.74969 | 36053 ft | 480 kts | 302° |
| 2026-05-08 01:27 | 29.43526 | 41.69301 | 36037 ft | 480 kts | 302° |
| 2026-05-08 01:27 | 29.48010 | 41.63638 | 36047 ft | 479 kts | 302° |
| 2026-05-08 01:28 | 29.52488 | 41.57974 | 36048 ft | 479 kts | 302° |
| 2026-05-08 01:28 | 29.56963 | 41.52303 | 36055 ft | 479 kts | 303° |
| 2026-05-08 01:29 | 29.61443 | 41.46620 | 36052 ft | 479 kts | 303° |
| 2026-05-08 01:29 | 29.65916 | 41.40938 | 36056 ft | 479 kts | 303° |
| 2026-05-08 01:30 | 29.70386 | 41.35251 | 36057 ft | 479 kts | 303° |
| 2026-05-08 01:30 | 29.74951 | 41.29630 | 36055 ft | 485 kts | 309° |
| 2026-05-08 01:31 | 29.79991 | 41.24438 | 36059 ft | 487 kts | 310° |
| 2026-05-08 01:31 | 29.85088 | 41.19300 | 36057 ft | 486 kts | 310° |
| 2026-05-08 01:32 | 29.90151 | 41.14144 | 36065 ft | 486 kts | 310° |
| 2026-05-08 01:32 | 29.95193 | 41.08963 | 36070 ft | 485 kts | 311° |
| 2026-05-08 01:33 | 29.99366 | 41.04663 | 36061 ft | 484 kts | 311° |
| 2026-05-08 01:33 | 30.04298 | 40.99574 | 36063 ft | 483 kts | 311° |
| 2026-05-08 01:34 | 30.09304 | 40.94403 | 36070 ft | 482 kts | 311° |
| 2026-05-08 01:34 | 30.14298 | 40.89241 | 36077 ft | 482 kts | 312° |
| 2026-05-08 01:35 | 30.19294 | 40.84068 | 36065 ft | 481 kts | 312° |
| 2026-05-08 01:35 | 30.24270 | 40.78909 | 36063 ft | 480 kts | 312° |
| 2026-05-08 01:36 | 30.29230 | 40.73757 | 36068 ft | 479 kts | 312° |
| 2026-05-08 01:36 | 30.34192 | 40.68597 | 36067 ft | 479 kts | 312° |
| 2026-05-08 01:37 | 30.39147 | 40.63438 | 36069 ft | 479 kts | 312° |
| 2026-05-08 01:37 | 30.44143 | 40.58306 | 36088 ft | 480 kts | 313° |
| 2026-05-08 01:38 | 30.49161 | 40.53187 | 36077 ft | 480 kts | 313° |
| 2026-05-08 01:38 | 30.54140 | 40.48096 | 36075 ft | 480 kts | 313° |
| 2026-05-08 01:39 | 30.59141 | 40.42962 | 36078 ft | 480 kts | 313° |
| 2026-05-08 01:39 | 30.64137 | 40.37824 | 36059 ft | 479 kts | 313° |
| 2026-05-08 01:40 | 30.69118 | 40.32695 | 36082 ft | 479 kts | 313° |
| 2026-05-08 01:40 | 30.74102 | 40.27554 | 36083 ft | 478 kts | 313° |
| 2026-05-08 01:41 | 30.79073 | 40.22420 | 36075 ft | 478 kts | 314° |
| 2026-05-08 01:41 | 30.84035 | 40.17288 | 36070 ft | 477 kts | 314° |
| 2026-05-08 01:42 | 30.88979 | 40.12167 | 36074 ft | 476 kts | 314° |
| 2026-05-08 01:42 | 30.93923 | 40.07038 | 36071 ft | 475 kts | 314° |
| 2026-05-08 01:43 | 30.98852 | 40.01917 | 36083 ft | 475 kts | 314° |
| 2026-05-08 01:43 | 31.03686 | 39.96889 | 36073 ft | 474 kts | 314° |
| 2026-05-08 01:44 | 31.08605 | 39.91764 | 36075 ft | 474 kts | 314° |
| 2026-05-08 01:44 | 31.13526 | 39.86629 | 36082 ft | 474 kts | 314° |
| 2026-05-08 01:45 | 31.18445 | 39.81490 | 36073 ft | 474 kts | 314° |
| 2026-05-08 01:45 | 31.23355 | 39.76352 | 36078 ft | 474 kts | 314° |
| 2026-05-08 01:46 | 31.28257 | 39.71216 | 36067 ft | 473 kts | 314° |
| 2026-05-08 01:46 | 31.33151 | 39.66079 | 36076 ft | 472 kts | 314° |
| 2026-05-08 01:47 | 31.38032 | 39.60948 | 36080 ft | 472 kts | 314° |
| 2026-05-08 01:47 | 31.42914 | 39.55820 | 36088 ft | 472 kts | 315° |
| 2026-05-08 01:48 | 31.50757 | 39.48779 | 36078 ft | 474 kts | 319° |
| 2026-05-08 01:48 | 31.56056 | 39.44188 | 36085 ft | 473 kts | 319° |
| 2026-05-08 01:49 | 31.61294 | 39.39603 | 36082 ft | 473 kts | 319° |
| 2026-05-08 01:49 | 31.66558 | 39.34965 | 36090 ft | 473 kts | 319° |
| 2026-05-08 01:50 | 31.71809 | 39.30327 | 36080 ft | 472 kts | 319° |
| 2026-05-08 01:50 | 31.77059 | 39.25686 | 36089 ft | 472 kts | 319° |
| 2026-05-08 01:51 | 31.82297 | 39.21050 | 36089 ft | 471 kts | 319° |
| 2026-05-08 01:51 | 31.87525 | 39.16415 | 36084 ft | 470 kts | 319° |
| 2026-05-08 01:52 | 31.92739 | 39.11786 | 36098 ft | 469 kts | 319° |
| 2026-05-08 01:52 | 31.97946 | 39.07157 | 36087 ft | 468 kts | 319° |
| 2026-05-08 01:53 | 32.03234 | 39.02694 | 36082 ft | 470 kts | 325° |
| 2026-05-08 01:53 | 32.08956 | 38.99178 | 36100 ft | 471 kts | 330° |
| 2026-05-08 01:54 | 32.14849 | 38.95783 | 36088 ft | 471 kts | 330° |
| 2026-05-08 01:54 | 32.20731 | 38.92361 | 36081 ft | 471 kts | 330° |
| 2026-05-08 01:55 | 32.26598 | 38.88906 | 36098 ft | 471 kts | 330° |
| 2026-05-08 01:55 | 32.32451 | 38.85441 | 36087 ft | 470 kts | 330° |
| 2026-05-08 01:56 | 32.38295 | 38.81977 | 36093 ft | 469 kts | 330° |
| 2026-05-08 01:56 | 32.44125 | 38.78518 | 36079 ft | 468 kts | 330° |
| 2026-05-08 01:57 | 32.49935 | 38.75066 | 36075 ft | 467 kts | 330° |
| 2026-05-08 01:57 | 32.55732 | 38.71616 | 36070 ft | 466 kts | 330° |
| 2026-05-08 01:58 | 32.61522 | 38.68165 | 36084 ft | 466 kts | 330° |
| 2026-05-08 01:58 | 32.67310 | 38.64711 | 36084 ft | 465 kts | 330° |
| 2026-05-08 01:59 | 32.73090 | 38.61257 | 36077 ft | 465 kts | 330° |
| 2026-05-08 01:59 | 32.78818 | 38.57829 | 36078 ft | 464 kts | 330° |
| 2026-05-08 02:00 | 32.84614 | 38.54355 | 36082 ft | 463 kts | 330° |
| 2026-05-08 02:00 | 32.90330 | 38.50923 | 36100 ft | 463 kts | 330° |
| 2026-05-08 02:01 | 32.96082 | 38.47465 | 36091 ft | 463 kts | 330° |
| 2026-05-08 02:01 | 33.01820 | 38.44010 | 36084 ft | 463 kts | 330° |
| 2026-05-08 02:02 | 33.07570 | 38.40543 | 36085 ft | 463 kts | 330° |
| 2026-05-08 02:02 | 33.13313 | 38.37076 | 36087 ft | 462 kts | 330° |
| 2026-05-08 02:03 | 33.19041 | 38.33586 | 36094 ft | 462 kts | 330° |
| 2026-05-08 02:03 | 33.24766 | 38.30086 | 36086 ft | 462 kts | 330° |
| 2026-05-08 02:04 | 33.30496 | 38.26588 | 36087 ft | 462 kts | 330° |
| 2026-05-08 02:04 | 33.36213 | 38.23093 | 36095 ft | 462 kts | 330° |
| 2026-05-08 02:05 | 33.41939 | 38.19586 | 36095 ft | 462 kts | 330° |
| 2026-05-08 02:05 | 33.47653 | 38.16086 | 36100 ft | 461 kts | 331° |
| 2026-05-08 02:06 | 33.53362 | 38.12627 | 36099 ft | 459 kts | 331° |
| 2026-05-08 02:06 | 33.59044 | 38.09183 | 36102 ft | 457 kts | 331° |
| 2026-05-08 02:07 | 33.64714 | 38.05735 | 36083 ft | 456 kts | 330° |
| 2026-05-08 02:07 | 33.70365 | 38.02291 | 36122 ft | 455 kts | 330° |
| 2026-05-08 02:08 | 33.75932 | 37.98893 | 36103 ft | 454 kts | 330° |
| 2026-05-08 02:08 | 33.81559 | 37.95455 | 36104 ft | 453 kts | 330° |
| 2026-05-08 02:09 | 33.86711 | 37.91247 | 36111 ft | 446 kts | 315° |
| 2026-05-08 02:09 | 33.90673 | 37.85636 | 36115 ft | 443 kts | 302° |
| 2026-05-08 02:10 | 33.93921 | 37.79348 | 36114 ft | 442 kts | 301° |
| 2026-05-08 02:10 | 33.96885 | 37.73541 | 36117 ft | 442 kts | 301° |
| 2026-05-08 02:11 | 34.00125 | 37.67273 | 36126 ft | 443 kts | 302° |
| 2026-05-08 02:11 | 34.03399 | 37.60982 | 36123 ft | 443 kts | 302° |
| 2026-05-08 02:12 | 34.06671 | 37.54690 | 36119 ft | 443 kts | 302° |
| 2026-05-08 02:12 | 34.09940 | 37.48391 | 36123 ft | 443 kts | 302° |
| 2026-05-08 02:13 | 34.13202 | 37.42090 | 36136 ft | 442 kts | 302° |
| 2026-05-08 02:13 | 34.16408 | 37.35889 | 35925 ft | 429 kts | 302° |
| 2026-05-08 02:14 | 34.17982 | 37.32840 | 35479 ft | 424 kts | 302° |
| 2026-05-08 02:14 | 34.19458 | 37.29776 | 34961 ft | 421 kts | 296° |
| 2026-05-08 02:14 | 34.20559 | 37.26504 | 34462 ft | 419 kts | 290° |
| 2026-05-08 02:14 | 34.21383 | 37.23139 | 33930 ft | 417 kts | 286° |
| 2026-05-08 02:15 | 34.21909 | 37.19703 | 33364 ft | 416 kts | 279° |
| 2026-05-08 02:15 | 34.22196 | 37.16244 | 32844 ft | 412 kts | 278° |
| 2026-05-08 02:15 | 34.22448 | 37.12803 | 32318 ft | 409 kts | 278° |
| 2026-05-08 02:15 | 34.22692 | 37.09401 | 31849 ft | 405 kts | 278° |
| 2026-05-08 02:16 | 34.22939 | 37.06025 | 31351 ft | 402 kts | 278° |
| 2026-05-08 02:16 | 34.23191 | 37.02676 | 30876 ft | 399 kts | 278° |
| 2026-05-08 02:16 | 34.23439 | 36.99452 | 30407 ft | 396 kts | 278° |
| 2026-05-08 02:16 | 34.23696 | 36.96145 | 29873 ft | 394 kts | 278° |
| 2026-05-08 02:17 | 34.23952 | 36.92865 | 29338 ft | 391 kts | 278° |
| 2026-05-08 02:17 | 34.24202 | 36.89658 | 28864 ft | 387 kts | 278° |
| 2026-05-08 02:17 | 34.24451 | 36.86438 | 28348 ft | 383 kts | 278° |
| 2026-05-08 02:17 | 34.24698 | 36.83248 | 27874 ft | 380 kts | 278° |
| 2026-05-08 02:18 | 34.24942 | 36.80085 | 27399 ft | 377 kts | 278° |
| 2026-05-08 02:18 | 34.25184 | 36.76946 | 26930 ft | 374 kts | 278° |
| 2026-05-08 02:18 | 34.25422 | 36.73831 | 26455 ft | 371 kts | 278° |
| 2026-05-08 02:18 | 34.25658 | 36.70737 | 26006 ft | 368 kts | 277° |
| 2026-05-08 02:19 | 34.25892 | 36.67664 | 25542 ft | 366 kts | 277° |
| 2026-05-08 02:19 | 34.26125 | 36.64609 | 25096 ft | 364 kts | 277° |
| 2026-05-08 02:19 | 34.26354 | 36.61568 | 24647 ft | 363 kts | 277° |
| 2026-05-08 02:19 | 34.26582 | 36.58543 | 24189 ft | 361 kts | 277° |
| 2026-05-08 02:20 | 34.26762 | 36.55522 | 23759 ft | 360 kts | 275° |
| 2026-05-08 02:20 | 34.26879 | 36.52491 | 23264 ft | 361 kts | 275° |
| 2026-05-08 02:20 | 34.26975 | 36.49495 | 22796 ft | 361 kts | 275° |
| 2026-05-08 02:20 | 34.27073 | 36.46464 | 22358 ft | 360 kts | 275° |
| 2026-05-08 02:21 | 34.27175 | 36.43445 | 21916 ft | 359 kts | 275° |
| 2026-05-08 02:21 | 34.27243 | 36.41454 | 21623 ft | 357 kts | 275° |
| 2026-05-08 02:21 | 34.27349 | 36.38471 | 21194 ft | 354 kts | 275° |
| 2026-05-08 02:21 | 34.27455 | 36.35511 | 20776 ft | 351 kts | 275° |
| 2026-05-08 02:22 | 34.27562 | 36.32570 | 20345 ft | 349 kts | 275° |
| 2026-05-08 02:22 | 34.27667 | 36.29653 | 19937 ft | 347 kts | 275° |
| 2026-05-08 02:22 | 34.27771 | 36.26741 | 19530 ft | 347 kts | 275° |
| 2026-05-08 02:22 | 34.27877 | 36.23820 | 19106 ft | 348 kts | 275° |
| 2026-05-08 02:23 | 34.27981 | 36.20898 | 18691 ft | 348 kts | 275° |
| 2026-05-08 02:23 | 34.28083 | 36.17984 | 18250 ft | 346 kts | 275° |
| 2026-05-08 02:23 | 34.28185 | 36.15086 | 17783 ft | 343 kts | 275° |
| 2026-05-08 02:23 | 34.28285 | 36.12221 | 17368 ft | 340 kts | 275° |
| 2026-05-08 02:24 | 34.28383 | 36.09377 | 16954 ft | 338 kts | 274° |
| 2026-05-08 02:24 | 34.28482 | 36.06539 | 16548 ft | 337 kts | 274° |
| 2026-05-08 02:24 | 34.28579 | 36.03701 | 16132 ft | 338 kts | 274° |
| 2026-05-08 02:24 | 34.28676 | 36.00863 | 15728 ft | 338 kts | 274° |
| 2026-05-08 02:25 | 34.28780 | 35.98113 | 15340 ft | 336 kts | 274° |
| 2026-05-08 02:25 | 34.28908 | 35.95301 | 14920 ft | 334 kts | 274° |
| 2026-05-08 02:25 | 34.29039 | 35.92503 | 14526 ft | 332 kts | 274° |
| 2026-05-08 02:25 | 34.29170 | 35.89719 | 14131 ft | 331 kts | 274° |
| 2026-05-08 02:26 | 34.29294 | 35.86972 | 13905 ft | 325 kts | 274° |
| 2026-05-08 02:26 | 34.29420 | 35.84227 | 13499 ft | 328 kts | 274° |
| 2026-05-08 02:26 | 34.29540 | 35.81580 | 13115 ft | 330 kts | 274° |
| 2026-05-08 02:26 | 34.29664 | 35.78814 | 12718 ft | 328 kts | 273° |
| 2026-05-08 02:27 | 34.29785 | 35.76066 | 12306 ft | 326 kts | 273° |
| 2026-05-08 02:27 | 34.29905 | 35.73341 | 11911 ft | 323 kts | 273° |
| 2026-05-08 02:27 | 34.29953 | 35.70651 | 11526 ft | 316 kts | 264° |
| 2026-05-08 02:27 | 34.29343 | 35.68139 | 11225 ft | 308 kts | 244° |
| 2026-05-08 02:28 | 34.28364 | 35.65845 | 10878 ft | 306 kts | 243° |
| 2026-05-08 02:28 | 34.27381 | 35.63577 | 10527 ft | 304 kts | 242° |
| 2026-05-08 02:28 | 34.26405 | 35.61316 | 10212 ft | 301 kts | 242° |
| 2026-05-08 02:28 | 34.25451 | 35.59097 | 10063 ft | 293 kts | 242° |
| 2026-05-08 02:29 | 34.24531 | 35.56946 | 9927 ft | 284 kts | 242° |
| 2026-05-08 02:29 | 34.23645 | 35.54869 | 9715 ft | 271 kts | 242° |
| 2026-05-08 02:29 | 34.22792 | 35.52866 | 8966 ft | 268 kts | 242° |
| 2026-05-08 02:29 | 34.21944 | 35.50873 | 8298 ft | 263 kts | 242° |
| 2026-05-08 02:30 | 34.21125 | 35.48948 | 8010 ft | 258 kts | 242° |
| 2026-05-08 02:30 | 34.20284 | 35.46972 | 7700 ft | 269 kts | 242° |
| 2026-05-08 02:30 | 34.19422 | 35.44950 | 7380 ft | 272 kts | 242° |
| 2026-05-08 02:30 | 34.18558 | 35.42923 | 7042 ft | 270 kts | 242° |
| 2026-05-08 02:31 | 34.17640 | 35.40962 | 6692 ft | 266 kts | 229° |
| 2026-05-08 02:31 | 34.16193 | 35.39663 | 6396 ft | 262 kts | 197° |
| 2026-05-08 02:31 | 34.14385 | 35.39337 | 6066 ft | 265 kts | 174° |
| 2026-05-08 02:31 | 34.12583 | 35.39779 | 5751 ft | 264 kts | 164° |
| 2026-05-08 02:32 | 34.10805 | 35.40324 | 5412 ft | 264 kts | 165° |
| 2026-05-08 02:32 | 34.09029 | 35.40858 | 5094 ft | 263 kts | 165° |
| 2026-05-08 02:32 | 34.07252 | 35.41387 | 4805 ft | 262 kts | 165° |
| 2026-05-08 02:32 | 34.05492 | 35.41897 | 4489 ft | 259 kts | 165° |
| 2026-05-08 02:33 | 34.03742 | 35.42382 | 4191 ft | 256 kts | 165° |
| 2026-05-08 02:33 | 34.02011 | 35.42862 | 3895 ft | 254 kts | 165° |
| 2026-05-08 02:33 | 34.00312 | 35.43331 | 3535 ft | 245 kts | 164° |
| 2026-05-08 02:33 | 33.98703 | 35.43774 | 3201 ft | 229 kts | 163° |
| 2026-05-08 02:34 | 33.97163 | 35.44205 | 2975 ft | 225 kts | 165° |
| 2026-05-08 02:34 | 33.95665 | 35.44624 | 2731 ft | 214 kts | 165° |
| 2026-05-08 02:34 | 33.94294 | 35.45005 | 2446 ft | 191 kts | 164° |
| 2026-05-08 02:34 | 33.93073 | 35.45348 | 2351 ft | 171 kts | 165° |
| 2026-05-08 02:35 | 33.91949 | 35.45666 | 2034 ft | 163 kts | 163° |
| 2026-05-08 02:35 | 33.90908 | 35.45949 | 1744 ft | 151 kts | 163° |
| 2026-05-08 02:35 | 33.89862 | 35.46219 | 1646 ft | 157 kts | 165° |
| 2026-05-08 02:35 | 33.88783 | 35.46526 | 1180 ft | 157 kts | 164° |
| 2026-05-08 02:36 | 33.87768 | 35.46817 | 816 ft | 143 kts | 165° |
| 2026-05-08 02:36 | 33.86802 | 35.47097 | 625 ft | 143 kts | 165° |
| 2026-05-08 02:36 | 33.85819 | 35.47382 | 428 ft | 144 kts | 165° |
| 2026-05-08 02:36 | 33.84833 | 35.47657 | 233 ft | 145 kts | 166° |
| 2026-05-08 02:37 | 33.83869 | 35.47927 | 58 ft | 142 kts | 165° |
| 2026-05-08 02:37 | 33.82965 | 35.48181 | 31 ft | 115 kts | 167° |
| 2026-05-08 02:37 | 33.82367 | 35.48346 | 31 ft | 62 kts | 167° |
| 2026-05-08 02:37 | 33.82086 | 35.48425 | 25 ft | 23 kts | 160° |
| 2026-05-08 02:38 | 33.81968 | 35.48492 | 24 ft | 19 kts | 146° |
| 2026-05-08 02:38 | 33.81879 | 35.48586 | 24 ft | 13 kts | 137° |
| 2026-05-08 02:38 | 33.81807 | 35.48667 | 23 ft | 15 kts | 137° |
| 2026-05-08 02:38 | 33.81756 | 35.48763 | 21 ft | 14 kts | 110° |
| 2026-05-08 02:39 | 33.81747 | 35.48796 | 21 ft | 3 kts | 106° |
| 2026-05-08 02:39 | 33.81738 | 35.48834 | 22 ft | 6 kts | 106° |
| 2026-05-08 02:39 | 33.81723 | 35.48895 | 23 ft | 9 kts | 106° |
| 2026-05-08 02:39 | 33.81710 | 35.48969 | 25 ft | 9 kts | 89° |
| 2026-05-08 02:40 | 33.81748 | 35.49032 | 26 ft | 10 kts | 35° |
| 2026-05-08 02:40 | 33.81821 | 35.49055 | 24 ft | 12 kts | 0° |
| 2026-05-08 02:40 | 33.81913 | 35.49050 | 24 ft | 14 kts | 356° |
| 2026-05-08 02:40 | 33.82022 | 35.49042 | 24 ft | 17 kts | 356° |
| 2026-05-08 02:41 | 33.82150 | 35.49033 | 24 ft | 20 kts | 356° |
| 2026-05-08 02:41 | 33.82282 | 35.49013 | 24 ft | 16 kts | 350° |
| 2026-05-08 02:41 | 33.82398 | 35.48998 | 24 ft | 18 kts | 354° |
| 2026-05-08 02:41 | 33.82477 | 35.48990 | 23 ft | 9 kts | 355° |
| 2026-05-08 02:42 | 33.82510 | 35.49010 | 24 ft | 4 kts | 64° |
| 2026-05-08 02:42 | 33.82513 | 35.49047 | 25 ft | 5 kts | 103° |
| 2026-05-08 02:42 | 33.82504 | 35.49090 | 25 ft | 4 kts | 104° |
| 2026-05-08 02:42 | 33.82501 | 35.49105 | 25 ft | 0 kts | 104° |